Estación Meteorológica Peña el Pijo (Robertgarden) [ 02/02/23 20:26:19 CET ]

Fecha Hora Presion(HPa) Temp (°C) Humedad % Rocio (°C) Viento ( m/s) Direccion Lluvia 1Hora(mm) Lluvia 24H(mm) LLuvia Total(mm)
2012-Mar-15 01:01:16 1018.500 3.2 58 -4.3         153.32
2012-Mar-15 02:05:19 1018.300 2.6 59 -4.6         153.32
2012-Mar-15 03:01:16 1017.900 2.1 61 -4.6         153.32
2012-Mar-15 04:01:15 1017.500 1.0 63 -5.3         153.32
2012-Mar-15 05:01:14 1017.200 0.2 64 -5.8         153.32
2012-Mar-15 06:01:13 1017.400 -0.6 67 -6.0         153.32
2012-Mar-15 07:01:16 1017.600 -1.2 66 -6.8         153.32
2012-Mar-15 08:01:12 1017.800 -1.4 67 -6.8         153.32
2012-Mar-15 09:01:16 1018.300 5.3 59 -2.1         153.32
2012-Mar-15 10:01:15 1018.300 11.9 38 -2.0         153.32
2012-Mar-15 11:01:12 1017.900 18.5 24 -2.7 1.0 N     153.32
2012-Mar-15 12:01:17 1017.600 21.9 15 -6.6         153.32
2012-Mar-15 13:01:12 1017.100 23.3 15 -5.4         153.32
2012-Mar-15 14:01:13 1016.900 23.8 15 -5.0         153.32
2012-Mar-15 15:01:16 1016.400 22.2 18 -3.6         153.32
2012-Mar-15 16:01:14 1016.200 22.2 18 -3.6 2.9 E     153.32
2012-Mar-15 17:01:16 1015.800 21.1 16 -6.3         153.32
2012-Mar-15 18:01:14 1016.000 19.5 18 -5.8         153.32
2012-Mar-15 19:01:12 1016.300 15.8 24 -5.0         153.32
2012-Mar-15 20:01:12 1016.800 12.8 29 -4.9         153.32
2012-Mar-15 21:01:17 1017.100 10.4 33 -5.3         153.32
2012-Mar-15 22:01:13 1017.600 6.9 41 -5.5         153.32
2012-Mar-15 23:01:17 1017.900 4.7 48 -5.5         153.32

Temperatura Máxima:23°    Temperatura Mínima:-1°
Presión Máxima:1018.500 Hpa    Presión Mínima:1015.800 Hpa


Volver